Forage Plot, Arizona (BMGR) Weather observations

Data are for 10 minute period ending at time listed.
 Day   Time   Solar   Ave.   Ave.  Ave.  Vector  Max.   Total    
  of    of     Rad.   Air    Rel.  Wind   Wind   Wind  Precip.   
Year   Day            Temp.  Hum.  Speed  Dir.   Gust            
2026   (MST)  Kw/m2    F      %     mph   deg.    mph    in.     
-----------------------------------------------------------------
 126   12:35   0.93   79.4    22    7.0   275     9.9    0.00 
 126   12:40   0.93   79.8    22    5.5   254     7.7    0.00 
 126   12:45   0.93   79.4    22    3.3   277     7.1    0.00 
 126   12:50   0.93   79.8    22    2.5   293     4.9    0.00 
 126   12:55   0.93   79.6    22    3.3    22     7.1    0.00 
 126   13:00   0.93   80.1    22    2.2   336     6.0    0.00 
 126   13:05   0.92   80.1    21    3.0    63     8.8    0.00 
 126   13:10   0.92   79.5    21    4.5    93     7.7    0.00 
 126   13:15   0.92   79.5    21    5.5   104     9.3    0.00 
 126   13:20   0.92   80.3    20    1.1   172     4.9    0.00 
 126   13:25   0.91   81.2    20    2.7   198     6.5    0.00 
 126   13:30   0.91   81.6    19    2.7   273     6.0    0.00 
 126   13:35   0.90   81.1    19    5.6   331     9.3    0.00 
 126   13:40   0.90   80.6    19    3.5   350     9.3    0.00 
 126   13:45   0.89   81.4    18    6.0   327    11.0    0.00 
 126   13:50   0.89   81.4    18    3.9   336     8.2    0.00 
 126   13:55   0.89   81.5    18    4.1   292     8.8    0.00 
 126   14:00   0.88   82.2    17    6.1   302     9.3    0.00 
 126   14:05   0.87   81.9    17    4.8   341     7.1    0.00 
 126   14:10   0.86   82.2    17    5.8   357     9.3    0.00 
 126   14:15   0.85   81.8    16    5.0    12     7.7    0.00 
 126   14:20   0.85   82.7    16    3.8    45     6.0    0.00 
 126   14:25   0.84   82.1    16    4.9   111     8.2    0.00 
 126   14:30   0.83   82.0    16    3.7    74     6.5    0.00 
 126   14:35   0.82   82.7    17    4.9    30     7.7    0.00 
 126   14:40   0.81   82.9    16    2.7   318     8.8    0.00 
 126   14:45   0.80   83.9    16    5.9   238    11.0    0.00 
 126   14:50   0.79   83.1    16    5.7   260     8.8    0.00 
 126   14:55   0.78   83.0    16    3.6   287     6.0    0.00 
 126   15:00   0.77   83.5    16    5.4   314    10.5    0.00 
 126   15:05   0.76   84.0    16    5.0   295    10.5    0.00 
 126   15:10   0.75   83.4    16    5.7   299    11.0    0.00 
 126   15:15   0.73   83.4    16    5.6   319    11.0    0.00 
 126   15:20   0.72   83.1    16    3.7   343     7.1    0.00 
 126   15:25   0.71   82.6    16    2.2    56     9.3    0.00 
 126   15:30   0.70   83.8    15    3.6   256     8.2    0.00 
 126   15:35   0.69   84.3    15    3.8   325     7.7    0.00 
 126   15:40   0.67   84.1    15    5.2   270     9.9    0.00 
 126   15:45   0.66   84.1    15    4.5   285     7.1    0.00 
 126   15:50   0.64   84.8    15    6.0   308    11.6    0.00 
 126   15:55   0.63   84.3    15    5.7   295     9.3    0.00 
 126   16:00   0.62   84.4    15    6.1   338    10.5    0.00 
 126   16:05   0.60   83.6    15    6.4    38    11.0    0.00 
 126   16:10   0.59   84.0    15    4.1    16     8.2    0.00 
 126   16:15   0.57   84.3    15    5.4   330     9.9    0.00 
 126   16:20   0.56   84.1    15    4.1   341     7.7    0.00 
 126   16:25   0.54   84.0    15    4.7   324     9.3    0.00 
 126   16:30   0.52   83.7    15    4.8     5     8.8    0.00 
 126   16:35   0.51   83.4    15    4.1    38     6.5    0.00 
 126   16:40   0.49   83.4    15    5.7    75     9.3    0.00 
 126   16:45   0.48   83.6    15    6.4   100    10.5    0.00 
 126   16:50   0.46   83.8    15    4.2    95     7.1    0.00 
 126   16:55   0.44   83.5    15    5.0    94     9.3    0.00 
 126   17:00   0.43   83.3    15    0.7    86     3.2    0.00 
 126   17:05   0.41   84.5    15    5.6   315    10.5    0.00 
 126   17:10   0.40   84.3    14    5.5   324     8.8    0.00 
 126   17:15   0.38   84.0    15    5.7   294     9.9    0.00 
 126   17:20   0.36   83.8    15    5.5   281     7.1    0.00 
 126   17:25   0.35   83.9    15    3.9   206     7.1    0.00 
 126   17:30   0.33   84.3    14    3.7   319     7.7    0.00 
 126   17:35   0.31   84.0    14    4.4   319     7.7    0.00 
 126   17:40   0.29   83.8    14    4.3   358     7.1    0.00 
 126   17:45   0.28   83.2    15    3.3    24     5.4    0.00 
 126   17:50   0.26   83.2    15    2.9    16     5.4    0.00 
 126   17:55   0.24   83.0    15    1.0    56     4.3    0.00 
 126   18:00   0.23   84.0    15    3.1   262     5.4    0.00 
 126   18:05   0.21   83.8    14    3.1   294     6.0    0.00 
 126   18:10   0.19   83.9    14    3.0   284     6.5    0.00 
 126   18:15   0.18   83.8    14    4.4   346     7.1    0.00 
 126   18:20   0.16   83.4    14    2.4   334     5.4    0.00 
 126   18:25   0.15   83.4    14    1.4   298     3.8    0.00 
 126   18:30   0.13   83.2    15    4.2   302     6.0    0.00 
 126   18:35   0.12   82.7    15    4.0   298     6.0    0.00 
 126   18:40   0.10   82.5    15    3.0   307     4.3    0.00 
 126   18:45   0.09   82.4    15    1.5   331     5.4    0.00 
 126   18:50   0.08   82.8    15    1.6   305     4.9    0.00 
 126   18:55   0.06   82.1    15    4.6   333     7.7    0.00 
 126   19:00   0.05   81.6    15    2.3   324     5.4    0.00 
 126   19:05   0.04   81.3    15    2.5   338     3.8    0.00 
 126   19:10   0.02   80.8    16    3.9   336     5.4    0.00 
 126   19:15   0.01   80.1    16    3.2   327     4.9    0.00 
 126   19:20   0.01   79.5    16    3.5   324     4.9    0.00 
 126   19:25   0.00   79.0    16    2.7   325     4.3    0.00 
 126   19:30   0.00   78.7    16    3.8   320     5.4    0.00 
 126   19:35   0.00   78.3    16    3.0   322     4.3    0.00 
 126   19:40   0.00   77.6    17    2.1   322     3.2    0.00 
 126   19:45   0.00   77.0    17    1.5   326     2.1    0.00 
 126   19:50   0.00   76.4    17    1.8   310     3.2    0.00 
 126   19:55   0.00   75.8    17    2.3   301     3.2    0.00 
 126   20:00   0.00   75.5    17    1.5   306     3.8    0.00 
 126   20:05   0.00   75.0    18    0.0     0     0.0    0.00 
 126   20:10   0.00   74.7    18    0.0     0     0.0    0.00 
 126   20:15   0.00   74.3    18    0.0     0     0.0    0.00 
 126   20:20   0.00   73.9    18    0.0     0     0.0    0.00 
 126   20:25   0.00   73.5    18    0.0     0     0.0    0.00 
 126   20:30   0.00   72.9    18    0.0     0     0.0    0.00 
 126   20:35   0.00   72.8    18    0.0     0     0.0    0.00 
 126   20:40   0.00   72.4    18    0.0     0     0.0    0.00 
 126   20:45   0.00   71.3    18    0.0     0     0.0    0.00 
 126   20:50   0.00   71.3    18    0.0     0     0.0    0.00 
 126   20:55   0.00   70.7    19    0.0     0     0.0    0.00 
 126   21:00   0.00   71.3    19    0.0     0     0.0    0.00 
 126   21:05   0.00   72.1    18    0.0     0     0.0    0.00 
 126   21:10   0.00   72.2    18    0.0    70     1.0    0.00 
 126   21:15   0.00   72.4    18    0.0     0     0.0    0.00 
 126   21:20   0.00   70.6    18    0.0     0     0.0    0.00 
 126   21:25   0.00   68.6    19    0.0     0     0.0    0.00 
 126   21:30   0.00   69.6    19    2.4   103     3.8    0.00 
 126   21:35   0.00   70.8    19    2.2   101     4.3    0.00 
 126   21:40   0.00   72.2    18    0.0     0     0.0    0.00 
 126   21:45   0.00   72.5    18    0.0     0     0.0    0.00 
 126   21:50   0.00   72.8    18    0.2   356     2.6    0.00 
 126   21:55   0.00   73.6    17    0.2   299     4.3    0.00 
 126   22:00   0.00   73.1    18    0.0     0     0.0    0.00 
 126   22:05   0.00   72.6    18    0.2   332     1.5    0.00 
 126   22:10   0.00   72.0    18    0.1   332     2.1    0.00 
 126   22:15   0.00   71.0    18    0.0     0     0.0    0.00 
 126   22:20   0.00   71.6    18    0.1    84     1.5    0.00 
 126   22:25   0.00   72.4    17    0.4    35     3.2    0.00 
 126   22:30   0.00   72.9    17    0.0     0     0.0    0.00 
 126   22:35   0.00   71.8    17    0.3    34     2.1    0.00 
 126   22:40   0.00   70.8    17    0.0     0     0.0    0.00 
 126   22:45   0.00   70.2    18    0.0     0     0.0    0.00 
 126   22:50   0.00   71.2    18    0.0     0     0.0    0.00 
 126   22:55   0.00   71.0    18    0.0     0     0.0    0.00 
 126   23:00   0.00   70.2    18    0.0     0     0.0    0.00 
 126   23:05   0.00   69.4    19    0.2    87     2.1    0.00 
 126   23:10   0.00   70.1    19    0.0     0     0.0    0.00 
 126   23:15   0.00   69.6    19    0.0     0     0.0    0.00 
 126   23:20   0.00   69.3    19    0.8   110     3.2    0.00 
 126   23:25   0.00   67.3    20    0.9   119     3.8    0.00 
 126   23:30   0.00   66.9    20    0.6   124     3.2    0.00 
 126   23:35   0.00   68.1    20    0.6   126     2.6    0.00 
 126   23:40   0.00   68.4    20    0.0     0     0.0    0.00 
 126   23:45   0.00   68.4    20    0.0     0     0.0    0.00 
 126   23:50   0.00   66.8    21    0.0     0     0.0    0.00 
 126   23:55   0.00   68.2    21    0.0     0     0.0    0.00 
 127    0:00   0.00   68.1    20    0.0     0     0.0    0.00 
 127    0:05   0.00   67.5    22    0.0     0     0.0    0.00 
 127    0:10   0.00   67.8    22    1.3   272     3.8    0.00 
 127    0:15   0.00   69.1    22    2.5   262     3.8    0.00 
 127    0:20   0.00   69.6    22    2.4   245     3.8    0.00 
 127    0:25   0.00   69.1    22    0.0     0     0.0    0.00 
 127    0:30   0.00   68.3    23    0.0     0     0.0    0.00 
 127    0:35   0.00   68.0    23    0.0     0     0.0    0.00 
 127    0:40   0.00   67.6    23    0.0     0     0.0    0.00 
 127    0:45   0.00   65.8    23    0.0     0     0.0    0.00 
 127    0:50   0.00   64.5    24    0.0     0     0.0    0.00 
 127    0:55   0.00   65.4    24    0.0     0     0.0    0.00 
 127    1:00   0.00   66.1    24    0.0     0     0.0    0.00 
 127    1:05   0.00   66.5    25    0.0     0     0.0    0.00 
 127    1:10   0.00   66.8    25    0.0     0     0.0    0.00 
 127    1:15   0.00   67.7    25    0.0     0     0.0    0.00 
 127    1:20   0.00   66.9    25    0.0     0     0.0    0.00 
 127    1:25   0.00   66.7    26    0.0     0     0.0    0.00 
 127    1:30   0.00   66.7    26    0.8    77     3.8    0.00 
 127    1:35   0.00   66.5    26    0.0     0     0.0    0.00 
 127    1:40   0.00   67.9    26    0.0     0     0.0    0.00 
 127    1:45   0.00   67.0    26    0.0     0     0.0    0.00 
 127    1:50   0.00   66.4    26    0.0     0     0.0    0.00 
 127    1:55   0.00   65.8    27    0.0     0     0.0    0.00 
 127    2:00   0.00   64.1    27    0.0     0     0.0    0.00 
 127    2:05   0.00   63.3    27    1.2   132     2.6    0.00 
 127    2:10   0.00   63.4    27    0.0     0     0.0    0.00 
 127    2:15   0.00   63.3    28    0.0     0     0.0    0.00 
 127    2:20   0.00   64.0    27    1.3   127     4.3    0.00 
 127    2:25   0.00   63.9    27    0.8   128     4.3    0.00 
 127    2:30   0.00   63.6    27    0.0     0     0.0    0.00 
 127    2:35   0.00   64.0    28    0.0     0     0.0    0.00 
 127    2:40   0.00   63.7    28    0.0     0     0.0    0.00 
 127    2:45   0.00   64.2    28    0.0     0     0.0    0.00 
 127    2:50   0.00   63.8    28    0.0     0     0.0    0.00 
 127    2:55   0.00   63.8    29    0.0     0     0.0    0.00 
 127    3:00   0.00   64.6    30    0.0     0     0.0    0.00 
 127    3:05   0.00   66.1    29    0.0     0     0.0    0.00 
 127    3:10   0.00   65.8    29    0.0     0     0.0    0.00 
 127    3:15   0.00   64.8    29    0.0     0     0.0    0.00 
 127    3:20   0.00   63.4    29    0.0     0     0.0    0.00 
 127    3:25   0.00   62.4    30    0.0     0     0.0    0.00 
 127    3:30   0.00   61.3    29    0.0     0     0.0    0.00 
 127    3:35   0.00   60.2    30    0.0     0     0.0    0.00 
 127    3:40   0.00   60.4    30    0.0     0     0.0    0.00 
 127    3:45   0.00   59.8    31    0.0     0     0.0    0.00 
 127    3:50   0.00   59.8    32    0.0     0     0.0    0.00 
 127    3:55   0.00   60.2    31    0.0     0     0.0    0.00 
 127    4:00   0.00   58.6    29    0.0     0     0.0    0.00 
 127    4:05   0.00   57.6    30    0.0     0     0.0    0.00 
 127    4:10   0.00   58.0    30    0.0     0     0.0    0.00 
 127    4:15   0.00   57.8    30    0.0     0     0.0    0.00 
 127    4:20   0.00   57.2    30    2.0   149     3.2    0.00 
 127    4:25   0.00   57.2    30    1.1   159     2.6    0.00 
 127    4:30   0.00   57.6    31    0.0     0     0.0    0.00 
 127    4:35   0.00   58.5    31    0.0     0     0.0    0.00 
 127    4:40   0.00   58.7    31    0.0     0     0.0    0.00 
 127    4:45   0.00   57.8    31    0.0     0     0.0    0.00 
 127    4:50   0.00   57.4    32    0.0     0     0.0    0.00 
 127    4:55   0.00   58.0    32    1.6   150     3.8    0.00 
 127    5:00   0.00   58.3    32    2.8   132     3.8    0.00 
 127    5:05   0.00   58.1    32    2.6   144     3.8    0.00 
 127    5:10   0.00   58.0    32    2.9   128     3.8    0.00 
 127    5:15   0.00   58.0    32    3.0   124     3.8    0.00 
 127    5:20   0.00   58.1    33    1.9   125     3.8    0.00 
 127    5:25   0.00   58.4    33    3.2   136     3.8    0.00 
 127    5:30   0.00   59.1    33    3.4   150     4.9    0.00 
 127    5:35   0.00   59.5    32    3.5   146     4.9    0.00 
 127    5:40   0.00   59.5    32    2.9   151     3.8    0.00 
 127    5:45   0.01   59.2    32    3.5   147     4.9    0.00 
 127    5:50   0.01   59.5    32    3.3   161     4.9    0.00 
 127    5:55   0.01   59.5    32    3.5   152     4.9    0.00 
 127    6:00   0.01   59.2    32    3.5   145     4.9    0.00 
 127    6:05   0.02   59.4    32    3.2   142     4.3    0.00 
 127    6:10   0.04   59.6    32    2.9   146     4.9    0.00 
 127    6:15   0.06   60.4    32    2.3   165     3.2    0.00 
 127    6:20   0.07   61.0    32    3.2   144     4.3    0.00 
 127    6:25   0.08   62.1    31    3.7   152     5.4    0.00 
 127    6:30   0.09   62.8    30    4.0   154     6.0    0.00 
 127    6:35   0.11   63.5    30    3.0   146     4.9    0.00 
 127    6:40   0.12   64.4    30    2.4   153     3.8    0.00 
 127    6:45   0.14   65.0    29    2.4   176     3.8    0.00 
 127    6:50   0.15   65.5    29    2.5   158     4.3    0.00 
 127    6:55   0.16   65.9    28    3.1   159     4.3    0.00 
 127    7:00   0.18   66.7    28    2.2   174     3.2    0.00 
 127    7:05   0.19   67.1    27    2.5   169     3.8    0.00 
 127    7:10   0.21   67.5    27    2.7   170     3.8    0.00 
 127    7:15   0.23   68.2    27    3.2   168     4.9    0.00 
 127    7:20   0.24   68.9    26    3.8   164     5.4    0.00 
 127    7:25   0.26   69.4    26    3.2   165     4.9    0.00 
 127    7:30   0.27   69.9    25    2.4   168     3.8    0.00 
 127    7:35   0.29   70.6    25    2.6   173     4.3    0.00 
 127    7:40   0.31   71.0    25    2.7   181     3.8    0.00 
 127    7:45   0.32   71.7    24    2.7   174     3.8    0.00 
 127    7:50   0.34   72.2    24    2.5   164     3.2    0.00 
 127    7:55   0.36   73.1    24    1.6   171     2.6    0.00 
 127    8:00   0.37   74.1    24    0.7   152     2.6    0.00 
 127    8:05   0.39   75.5    23    0.6   209     2.1    0.00 
 127    8:10   0.41   76.7    23    0.0     0     0.0    0.00 
 127    8:15   0.42   77.8    22    0.1   219     2.1    0.00 
 127    8:20   0.44   78.9    22    0.0   220     1.0    0.00 
 127    8:25   0.46   79.4    22    0.7   300     3.8    0.00 
 127    8:30   0.47   78.6    22    0.3   300     2.1    0.00 
 127    8:35   0.49   79.6    22    0.2   305     1.5    0.00 
 127    8:40   0.50   79.7    22    0.3   311     2.6    0.00 
 127    8:45   0.52   80.4    22    1.7   319     6.0    0.00 
 127    8:50   0.53   80.3    22    0.5    21     2.6    0.00 
 127    8:55   0.55   80.8    21    2.2   325     4.3    0.00 
 127    9:00   0.56   81.1    21    2.3     6     5.4    0.00 
 127    9:05   0.58   80.8    21    3.1   321     4.9    0.00 
 127    9:10   0.59   81.0    21    3.9   357     6.5    0.00 
 127    9:15   0.60   81.2    21    4.5   318     7.1    0.00 
 127    9:20   0.62   81.9    21    4.6   327     7.1    0.00 
 127    9:25   0.63   82.0    21    5.5   327     8.8    0.00 
 127    9:30   0.64   82.3    20    5.7   322    11.0    0.00 
 127    9:35   0.66   82.8    20    5.1   344     9.3    0.00 
 127    9:40   0.67   82.9    20    6.1   346     9.3    0.00 
 127    9:45   0.68   83.5    19    4.4     1     7.1    0.00 
 127    9:50   0.69   83.9    19    5.4   327    10.5    0.00 
 127    9:55   0.71   83.9    19    6.6   346     9.9    0.00 
 127   10:00   0.72   84.1    19    5.1   348     8.2    0.00 
 127   10:05   0.73   84.5    19    6.6   326    10.5    0.00 
 127   10:10   0.74   84.5    18    6.0   342     9.9    0.00 
 127   10:15   0.75   85.3    18    7.0   338    10.5    0.00 
 127   10:20   0.76   84.9    18    6.0   328     9.9    0.00 
 127   10:25   0.77   85.8    18    5.3   328     8.2    0.00 
 127   10:30   0.78   86.1    17    6.2   321     9.9    0.00 
 127   10:35   0.79   85.8    18    6.0   332    11.0    0.00 
 127   10:40   0.80   86.4    17    5.4   320     8.2    0.00 
 127   10:45   0.81   86.4    17    6.2   349    11.0    0.00 
 127   10:50   0.82   87.0    17    6.3   324    11.6    0.00 
 127   10:55   0.83   86.2    17    6.8   328    11.6    0.00 
 127   11:00   0.84   87.0    17    5.9   347    11.0    0.00 
 127   11:05   0.84   87.9    17    7.0   348    12.7    0.00 
 127   11:10   0.85   88.2    16    6.4   337    10.5    0.00 
 127   11:15   0.86   87.9    16    8.4   348    14.9    0.00 
 127   11:20   0.87   88.1    16    8.7   343    12.7    0.00 
 127   11:25   0.87   88.1    16    5.6   329     9.9    0.00 
 127   11:30   0.88   88.7    16    8.3     7    15.5    0.00 
 127   11:35   0.88   88.8    16    9.1   319    14.4    0.00 
 127   11:40   0.89   88.9    16    6.3   322    11.0    0.00 
 127   11:45   0.89   88.8    16    6.9   322    11.0    0.00 
 127   11:50   0.90   89.5    16    6.6   349    12.7    0.00 
 127   11:55   0.90   90.8    15    7.1   322    12.1    0.00 
 127   12:00   0.91   90.7    15    8.4   329    14.4    0.00 
 127   12:05   0.91   89.7    16    9.5   324    16.0    0.00 
 127   12:10   0.91   89.9    16    8.6   353    12.7    0.00 
 127   12:15   0.91   90.3    15    5.4   346    10.5    0.00 
 127   12:20   0.92   90.2    15    8.3   339    14.4    0.00 
 127   12:25   0.92   90.1    15    7.0   347    11.0    0.00 
 127   12:30   0.92   90.2    15    5.9   328    11.0    0.00 

Return to Forage Plot graphs page.


Western Regional Climate Center,wrcc@dri.edu